sensor_id;sensor_type;location;lat;lon;timestamp;temperature;humidity
73939;DHT22;62291;47.554;8.504;2023-05-21T00:00:11;13.10;99.90
73939;DHT22;62291;47.554;8.504;2023-05-21T00:02:37;13.10;99.90
73939;DHT22;62291;47.554;8.504;2023-05-21T00:05:03;13.10;99.90
73939;DHT22;62291;47.554;8.504;2023-05-21T00:07:28;13.10;99.90
73939;DHT22;62291;47.554;8.504;2023-05-21T00:09:55;13.10;99.90
73939;DHT22;62291;47.554;8.504;2023-05-21T00:12:21;13.10;99.90
73939;DHT22;62291;47.554;8.504;2023-05-21T00:14:46;13.10;99.90
73939;DHT22;62291;47.554;8.504;2023-05-21T00:17:12;13.00;99.90
73939;DHT22;62291;47.554;8.504;2023-05-21T00:19:37;13.00;99.90
73939;DHT22;62291;47.554;8.504;2023-05-21T00:22:04;13.00;99.90
73939;DHT22;62291;47.554;8.504;2023-05-21T00:24:29;13.00;99.90
73939;DHT22;62291;47.554;8.504;2023-05-21T00:26:55;13.10;99.90
73939;DHT22;62291;47.554;8.504;2023-05-21T00:29:21;13.00;99.90
73939;DHT22;62291;47.554;8.504;2023-05-21T00:31:47;13.00;99.90
73939;DHT22;62291;47.554;8.504;2023-05-21T00:34:12;13.00;99.90
73939;DHT22;62291;47.554;8.504;2023-05-21T00:36:38;13.00;99.90
73939;DHT22;62291;47.554;8.504;2023-05-21T00:39:05;12.90;99.90
73939;DHT22;62291;47.554;8.504;2023-05-21T00:41:30;12.90;99.90
73939;DHT22;62291;47.554;8.504;2023-05-21T00:43:56;12.90;99.90
73939;DHT22;62291;47.554;8.504;2023-05-21T00:46:24;12.90;99.90
73939;DHT22;62291;47.554;8.504;2023-05-21T00:48:52;13.00;99.90
73939;DHT22;62291;47.554;8.504;2023-05-21T00:51:18;13.00;99.90
73939;DHT22;62291;47.554;8.504;2023-05-21T00:53:48;13.00;99.90
73939;DHT22;62291;47.554;8.504;2023-05-21T00:56:13;13.00;99.90
73939;DHT22;62291;47.554;8.504;2023-05-21T00:58:39;13.00;99.90
73939;DHT22;62291;47.554;8.504;2023-05-21T01:01:05;13.00;99.90
73939;DHT22;62291;47.554;8.504;2023-05-21T01:03:31;13.00;99.90
73939;DHT22;62291;47.554;8.504;2023-05-21T01:06:05;13.00;99.90
73939;DHT22;62291;47.554;8.504;2023-05-21T01:08:31;13.00;99.90
73939;DHT22;62291;47.554;8.504;2023-05-21T01:10:58;13.10;99.90
73939;DHT22;62291;47.554;8.504;2023-05-21T01:13:24;13.10;99.90
73939;DHT22;62291;47.554;8.504;2023-05-21T01:15:50;13.00;99.90
73939;DHT22;62291;47.554;8.504;2023-05-21T01:18:18;13.10;99.90
73939;DHT22;62291;47.554;8.504;2023-05-21T01:20:45;13.00;99.90
73939;DHT22;62291;47.554;8.504;2023-05-21T01:23:15;13.00;99.90
73939;DHT22;62291;47.554;8.504;2023-05-21T01:25:41;13.00;99.90
73939;DHT22;62291;47.554;8.504;2023-05-21T01:28:07;13.00;99.90
73939;DHT22;62291;47.554;8.504;2023-05-21T01:30:32;13.00;99.90
73939;DHT22;62291;47.554;8.504;2023-05-21T01:33:12;13.00;99.90
73939;DHT22;62291;47.554;8.504;2023-05-21T01:38:21;13.00;99.90
73939;DHT22;62291;47.554;8.504;2023-05-21T01:40:59;13.00;99.90
73939;DHT22;62291;47.554;8.504;2023-05-21T01:43:28;13.00;99.90
73939;DHT22;62291;47.554;8.504;2023-05-21T01:45:55;13.10;99.90
73939;DHT22;62291;47.554;8.504;2023-05-21T01:48:22;13.00;99.90
73939;DHT22;62291;47.554;8.504;2023-05-21T01:50:49;13.10;99.90
73939;DHT22;62291;47.554;8.504;2023-05-21T01:53:15;13.10;99.90
73939;DHT22;62291;47.554;8.504;2023-05-21T01:55:41;13.10;99.90
73939;DHT22;62291;47.554;8.504;2023-05-21T01:58:07;13.10;99.90
73939;DHT22;62291;47.554;8.504;2023-05-21T02:00:34;13.10;99.90
73939;DHT22;62291;47.554;8.504;2023-05-21T02:02:59;13.10;99.90
73939;DHT22;62291;47.554;8.504;2023-05-21T02:05:25;13.10;99.90
73939;DHT22;62291;47.554;8.504;2023-05-21T02:07:50;13.00;99.90
73939;DHT22;62291;47.554;8.504;2023-05-21T02:10:17;13.00;99.90
73939;DHT22;62291;47.554;8.504;2023-05-21T02:12:42;13.00;99.90
73939;DHT22;62291;47.554;8.504;2023-05-21T02:15:08;13.00;99.90
73939;DHT22;62291;47.554;8.504;2023-05-21T02:17:34;13.00;99.90
73939;DHT22;62291;47.554;8.504;2023-05-21T02:19:59;13.00;99.90
73939;DHT22;62291;47.554;8.504;2023-05-21T02:22:39;13.00;99.90
73939;DHT22;62291;47.554;8.504;2023-05-21T02:25:05;13.00;99.90
73939;DHT22;62291;47.554;8.504;2023-05-21T02:27:32;13.00;99.90
73939;DHT22;62291;47.554;8.504;2023-05-21T02:29:59;13.10;99.90
73939;DHT22;62291;47.554;8.504;2023-05-21T02:32:25;13.10;99.90
73939;DHT22;62291;47.554;8.504;2023-05-21T02:34:51;13.10;99.90
73939;DHT22;62291;47.554;8.504;2023-05-21T02:37:18;13.10;99.90
73939;DHT22;62291;47.554;8.504;2023-05-21T02:39:43;13.00;99.90
73939;DHT22;62291;47.554;8.504;2023-05-21T02:42:09;13.10;99.90
73939;DHT22;62291;47.554;8.504;2023-05-21T02:44:34;13.00;99.90
73939;DHT22;62291;47.554;8.504;2023-05-21T02:47:00;13.00;99.90
73939;DHT22;62291;47.554;8.504;2023-05-21T02:49:26;13.00;99.90
73939;DHT22;62291;47.554;8.504;2023-05-21T02:51:51;12.90;99.90
73939;DHT22;62291;47.554;8.504;2023-05-21T02:54:17;12.90;99.90
73939;DHT22;62291;47.554;8.504;2023-05-21T02:56:42;12.80;99.90
73939;DHT22;62291;47.554;8.504;2023-05-21T02:59:08;12.70;99.90
73939;DHT22;62291;47.554;8.504;2023-05-21T03:01:33;12.60;99.90
73939;DHT22;62291;47.554;8.504;2023-05-21T03:03:59;12.50;99.90
73939;DHT22;62291;47.554;8.504;2023-05-21T03:06:25;12.40;99.90
73939;DHT22;62291;47.554;8.504;2023-05-21T03:08:50;12.40;99.90
73939;DHT22;62291;47.554;8.504;2023-05-21T03:11:17;12.40;99.90
73939;DHT22;62291;47.554;8.504;2023-05-21T03:13:42;12.40;99.90
73939;DHT22;62291;47.554;8.504;2023-05-21T03:16:08;12.40;99.90
73939;DHT22;62291;47.554;8.504;2023-05-21T03:18:34;12.30;99.90
73939;DHT22;62291;47.554;8.504;2023-05-21T03:20:59;12.30;99.90
73939;DHT22;62291;47.554;8.504;2023-05-21T03:23:25;12.30;99.90
73939;DHT22;62291;47.554;8.504;2023-05-21T03:25:51;12.30;99.90
73939;DHT22;62291;47.554;8.504;2023-05-21T03:28:17;12.30;99.90
73939;DHT22;62291;47.554;8.504;2023-05-21T03:30:42;12.30;99.90
73939;DHT22;62291;47.554;8.504;2023-05-21T03:33:14;12.30;99.90
73939;DHT22;62291;47.554;8.504;2023-05-21T03:35:39;12.30;99.90
73939;DHT22;62291;47.554;8.504;2023-05-21T03:38:05;12.20;99.90
73939;DHT22;62291;47.554;8.504;2023-05-21T03:40:31;12.20;99.90
73939;DHT22;62291;47.554;8.504;2023-05-21T03:42:56;12.20;99.90
73939;DHT22;62291;47.554;8.504;2023-05-21T03:45:22;12.20;99.90
73939;DHT22;62291;47.554;8.504;2023-05-21T03:47:47;12.20;99.90
73939;DHT22;62291;47.554;8.504;2023-05-21T03:50:13;12.10;99.90
73939;DHT22;62291;47.554;8.504;2023-05-21T03:52:39;12.10;99.90
73939;DHT22;62291;47.554;8.504;2023-05-21T03:55:05;12.10;99.90
73939;DHT22;62291;47.554;8.504;2023-05-21T03:57:30;12.10;99.90
73939;DHT22;62291;47.554;8.504;2023-05-21T03:59:57;12.10;99.90
73939;DHT22;62291;47.554;8.504;2023-05-21T04:02:26;12.10;99.90
73939;DHT22;62291;47.554;8.504;2023-05-21T04:04:51;12.10;99.90
73939;DHT22;62291;47.554;8.504;2023-05-21T04:07:20;12.10;99.90
73939;DHT22;62291;47.554;8.504;2023-05-21T04:09:46;12.10;99.90
73939;DHT22;62291;47.554;8.504;2023-05-21T04:12:12;12.10;99.90
73939;DHT22;62291;47.554;8.504;2023-05-21T04:14:38;12.20;99.90
73939;DHT22;62291;47.554;8.504;2023-05-21T04:17:03;12.10;99.90
73939;DHT22;62291;47.554;8.504;2023-05-21T04:19:30;12.10;99.90
73939;DHT22;62291;47.554;8.504;2023-05-21T04:21:56;12.10;99.90
73939;DHT22;62291;47.554;8.504;2023-05-21T04:24:22;12.10;99.90
73939;DHT22;62291;47.554;8.504;2023-05-21T04:26:48;12.20;99.90
73939;DHT22;62291;47.554;8.504;2023-05-21T04:29:14;12.20;99.90
73939;DHT22;62291;47.554;8.504;2023-05-21T04:31:42;12.20;99.90
73939;DHT22;62291;47.554;8.504;2023-05-21T04:34:08;12.30;99.90
73939;DHT22;62291;47.554;8.504;2023-05-21T04:36:33;12.40;99.90
73939;DHT22;62291;47.554;8.504;2023-05-21T04:38:59;12.40;99.90
73939;DHT22;62291;47.554;8.504;2023-05-21T04:41:25;12.50;99.90
73939;DHT22;62291;47.554;8.504;2023-05-21T04:43:50;12.60;99.90
73939;DHT22;62291;47.554;8.504;2023-05-21T04:46:20;12.60;99.90
73939;DHT22;62291;47.554;8.504;2023-05-21T04:48:52;12.60;99.90
73939;DHT22;62291;47.554;8.504;2023-05-21T04:51:21;12.70;99.90
73939;DHT22;62291;47.554;8.504;2023-05-21T04:53:51;12.80;99.90
73939;DHT22;62291;47.554;8.504;2023-05-21T04:56:18;12.80;99.90
73939;DHT22;62291;47.554;8.504;2023-05-21T04:58:44;12.80;99.90
73939;DHT22;62291;47.554;8.504;2023-05-21T05:01:09;12.90;99.90
73939;DHT22;62291;47.554;8.504;2023-05-21T05:03:37;13.00;99.90
73939;DHT22;62291;47.554;8.504;2023-05-21T05:06:02;13.20;99.90
73939;DHT22;62291;47.554;8.504;2023-05-21T05:08:28;13.30;99.90
73939;DHT22;62291;47.554;8.504;2023-05-21T05:10:54;13.40;99.90
73939;DHT22;62291;47.554;8.504;2023-05-21T05:13:20;13.50;99.90
73939;DHT22;62291;47.554;8.504;2023-05-21T05:15:45;13.50;99.90
73939;DHT22;62291;47.554;8.504;2023-05-21T05:18:11;13.60;99.90
73939;DHT22;62291;47.554;8.504;2023-05-21T05:20:37;13.70;99.90
73939;DHT22;62291;47.554;8.504;2023-05-21T05:23:02;13.90;99.90
73939;DHT22;62291;47.554;8.504;2023-05-21T05:25:28;14.00;99.90
73939;DHT22;62291;47.554;8.504;2023-05-21T05:27:53;14.10;99.90
73939;DHT22;62291;47.554;8.504;2023-05-21T05:30:19;14.20;99.90
73939;DHT22;62291;47.554;8.504;2023-05-21T05:32:45;14.30;99.90
73939;DHT22;62291;47.554;8.504;2023-05-21T05:35:11;14.30;99.90
73939;DHT22;62291;47.554;8.504;2023-05-21T05:37:36;14.20;99.90
73939;DHT22;62291;47.554;8.504;2023-05-21T05:40:02;14.20;99.90
73939;DHT22;62291;47.554;8.504;2023-05-21T05:42:28;14.30;99.90
73939;DHT22;62291;47.554;8.504;2023-05-21T05:44:54;14.50;99.90
73939;DHT22;62291;47.554;8.504;2023-05-21T05:47:20;14.70;99.90
73939;DHT22;62291;47.554;8.504;2023-05-21T05:49:46;14.90;99.90
73939;DHT22;62291;47.554;8.504;2023-05-21T05:52:11;15.10;99.90
73939;DHT22;62291;47.554;8.504;2023-05-21T05:54:37;15.20;99.90
73939;DHT22;62291;47.554;8.504;2023-05-21T05:57:02;15.30;99.90
73939;DHT22;62291;47.554;8.504;2023-05-21T05:59:28;15.40;99.90
73939;DHT22;62291;47.554;8.504;2023-05-21T06:01:53;15.60;99.90
73939;DHT22;62291;47.554;8.504;2023-05-21T06:04:19;15.60;99.90
73939;DHT22;62291;47.554;8.504;2023-05-21T06:06:45;15.60;99.90
73939;DHT22;62291;47.554;8.504;2023-05-21T06:09:11;15.60;99.90
73939;DHT22;62291;47.554;8.504;2023-05-21T06:11:37;15.50;99.90
73939;DHT22;62291;47.554;8.504;2023-05-21T06:14:02;15.60;99.90
73939;DHT22;62291;47.554;8.504;2023-05-21T06:16:28;15.50;99.90
73939;DHT22;62291;47.554;8.504;2023-05-21T06:18:56;15.60;99.90
73939;DHT22;62291;47.554;8.504;2023-05-21T06:21:22;15.60;99.90
73939;DHT22;62291;47.554;8.504;2023-05-21T06:23:47;15.70;99.90
73939;DHT22;62291;47.554;8.504;2023-05-21T06:26:13;15.80;99.90
73939;DHT22;62291;47.554;8.504;2023-05-21T06:28:39;15.90;99.90
73939;DHT22;62291;47.554;8.504;2023-05-21T06:31:04;16.10;99.90
73939;DHT22;62291;47.554;8.504;2023-05-21T06:33:30;16.50;99.90
73939;DHT22;62291;47.554;8.504;2023-05-21T06:35:56;17.00;99.90
73939;DHT22;62291;47.554;8.504;2023-05-21T06:38:21;17.40;99.90
73939;DHT22;62291;47.554;8.504;2023-05-21T06:40:47;17.90;99.90
73939;DHT22;62291;47.554;8.504;2023-05-21T06:43:13;18.30;99.90
73939;DHT22;62291;47.554;8.504;2023-05-21T06:45:39;18.70;99.90
73939;DHT22;62291;47.554;8.504;2023-05-21T06:48:04;18.90;99.90
73939;DHT22;62291;47.554;8.504;2023-05-21T06:50:30;19.40;99.90
73939;DHT22;62291;47.554;8.504;2023-05-21T06:52:55;20.00;99.90
73939;DHT22;62291;47.554;8.504;2023-05-21T06:55:21;20.20;99.90
73939;DHT22;62291;47.554;8.504;2023-05-21T06:57:46;20.40;99.90
73939;DHT22;62291;47.554;8.504;2023-05-21T07:00:12;20.50;99.90
73939;DHT22;62291;47.554;8.504;2023-05-21T07:02:38;20.90;99.90
73939;DHT22;62291;47.554;8.504;2023-05-21T07:05:03;21.80;99.90
73939;DHT22;62291;47.554;8.504;2023-05-21T07:07:29;22.70;99.90
73939;DHT22;62291;47.554;8.504;2023-05-21T07:09:55;23.50;99.90
73939;DHT22;62291;47.554;8.504;2023-05-21T07:12:20;23.20;99.90
73939;DHT22;62291;47.554;8.504;2023-05-21T07:14:46;22.80;99.90
73939;DHT22;62291;47.554;8.504;2023-05-21T07:17:11;23.00;99.90
73939;DHT22;62291;47.554;8.504;2023-05-21T07:19:37;23.80;99.90
73939;DHT22;62291;47.554;8.504;2023-05-21T07:22:03;23.40;99.90
73939;DHT22;62291;47.554;8.504;2023-05-21T07:24:29;23.50;99.90
73939;DHT22;62291;47.554;8.504;2023-05-21T07:26:54;23.70;99.90
73939;DHT22;62291;47.554;8.504;2023-05-21T07:29:20;23.90;99.90
73939;DHT22;62291;47.554;8.504;2023-05-21T07:31:46;24.10;99.90
73939;DHT22;62291;47.554;8.504;2023-05-21T07:34:11;24.60;99.90
73939;DHT22;62291;47.554;8.504;2023-05-21T07:36:37;24.60;99.90
73939;DHT22;62291;47.554;8.504;2023-05-21T07:39:02;24.40;99.90
73939;DHT22;62291;47.554;8.504;2023-05-21T07:41:29;24.50;99.60
73939;DHT22;62291;47.554;8.504;2023-05-21T07:43:54;24.80;99.60
73939;DHT22;62291;47.554;8.504;2023-05-21T07:46:20;25.10;99.20
73939;DHT22;62291;47.554;8.504;2023-05-21T07:48:45;26.10;98.50
73939;DHT22;62291;47.554;8.504;2023-05-21T07:51:12;26.90;96.80
73939;DHT22;62291;47.554;8.504;2023-05-21T07:53:38;27.80;96.10
73939;DHT22;62291;47.554;8.504;2023-05-21T07:56:04;28.70;94.80
73939;DHT22;62291;47.554;8.504;2023-05-21T07:58:29;28.70;92.10
73939;DHT22;62291;47.554;8.504;2023-05-21T08:00:55;28.10;92.90
73939;DHT22;62291;47.554;8.504;2023-05-21T08:03:21;27.40;92.50
73939;DHT22;62291;47.554;8.504;2023-05-21T08:05:47;27.10;94.50
73939;DHT22;62291;47.554;8.504;2023-05-21T08:08:13;27.40;94.20
73939;DHT22;62291;47.554;8.504;2023-05-21T08:10:39;27.30;93.30
73939;DHT22;62291;47.554;8.504;2023-05-21T08:13:05;27.10;92.90
73939;DHT22;62291;47.554;8.504;2023-05-21T08:15:30;26.60;93.20
73939;DHT22;62291;47.554;8.504;2023-05-21T08:17:56;25.80;95.10
73939;DHT22;62291;47.554;8.504;2023-05-21T08:20:21;25.80;95.70
73939;DHT22;62291;47.554;8.504;2023-05-21T08:22:47;26.50;93.60
73939;DHT22;62291;47.554;8.504;2023-05-21T08:25:12;26.10;94.20
73939;DHT22;62291;47.554;8.504;2023-05-21T08:27:38;25.90;95.70
73939;DHT22;62291;47.554;8.504;2023-05-21T08:30:04;26.30;93.90
73939;DHT22;62291;47.554;8.504;2023-05-21T08:32:29;26.70;93.40
73939;DHT22;62291;47.554;8.504;2023-05-21T08:34:55;25.80;93.30
73939;DHT22;62291;47.554;8.504;2023-05-21T08:37:22;25.70;94.20
73939;DHT22;62291;47.554;8.504;2023-05-21T08:39:47;25.70;95.10
73939;DHT22;62291;47.554;8.504;2023-05-21T08:42:55;25.70;95.10
73939;DHT22;62291;47.554;8.504;2023-05-21T08:45:03;25.70;94.40
73939;DHT22;62291;47.554;8.504;2023-05-21T08:47:30;26.00;95.20
73939;DHT22;62291;47.554;8.504;2023-05-21T08:49:57;27.10;95.10
73939;DHT22;62291;47.554;8.504;2023-05-21T08:52:24;27.20;92.60
73939;DHT22;62291;47.554;8.504;2023-05-21T08:54:51;26.70;92.10
73939;DHT22;62291;47.554;8.504;2023-05-21T08:57:17;26.60;93.60
73939;DHT22;62291;47.554;8.504;2023-05-21T08:59:44;26.70;93.10
73939;DHT22;62291;47.554;8.504;2023-05-21T09:02:12;27.30;92.50
73939;DHT22;62291;47.554;8.504;2023-05-21T09:04:39;27.00;91.90
73939;DHT22;62291;47.554;8.504;2023-05-21T09:07:05;26.90;93.30
73939;DHT22;62291;47.554;8.504;2023-05-21T09:09:38;27.10;91.30
73939;DHT22;62291;47.554;8.504;2023-05-21T09:12:06;26.90;92.30
73939;DHT22;62291;47.554;8.504;2023-05-21T09:14:32;27.30;93.40
73939;DHT22;62291;47.554;8.504;2023-05-21T09:16:57;26.90;92.60
73939;DHT22;62291;47.554;8.504;2023-05-21T09:19:23;27.20;93.10
73939;DHT22;62291;47.554;8.504;2023-05-21T09:21:51;27.60;92.50
73939;DHT22;62291;47.554;8.504;2023-05-21T09:24:18;27.50;91.10
73939;DHT22;62291;47.554;8.504;2023-05-21T09:26:46;27.70;92.10
73939;DHT22;62291;47.554;8.504;2023-05-21T09:29:12;27.50;92.30
73939;DHT22;62291;47.554;8.504;2023-05-21T09:31:41;27.20;92.50
73939;DHT22;62291;47.554;8.504;2023-05-21T09:34:07;26.90;91.40
73939;DHT22;62291;47.554;8.504;2023-05-21T09:36:32;26.90;92.50
73939;DHT22;62291;47.554;8.504;2023-05-21T09:39:01;26.50;92.80
73939;DHT22;62291;47.554;8.504;2023-05-21T09:41:31;26.90;93.20
73939;DHT22;62291;47.554;8.504;2023-05-21T09:43:58;28.10;93.50
73939;DHT22;62291;47.554;8.504;2023-05-21T09:46:24;28.50;90.50
73939;DHT22;62291;47.554;8.504;2023-05-21T09:48:52;28.20;89.10
73939;DHT22;62291;47.554;8.504;2023-05-21T09:51:18;28.30;90.40
73939;DHT22;62291;47.554;8.504;2023-05-21T09:53:47;27.90;90.40
73939;DHT22;62291;47.554;8.504;2023-05-21T09:56:13;27.60;90.40
73939;DHT22;62291;47.554;8.504;2023-05-21T09:58:39;27.40;90.20
73939;DHT22;62291;47.554;8.504;2023-05-21T10:01:05;27.00;90.60
73939;DHT22;62291;47.554;8.504;2023-05-21T10:03:35;26.60;91.90
73939;DHT22;62291;47.554;8.504;2023-05-21T10:06:03;27.10;91.00
73939;DHT22;62291;47.554;8.504;2023-05-21T10:08:29;27.20;90.60
73939;DHT22;62291;47.554;8.504;2023-05-21T10:10:58;26.80;91.20
73939;DHT22;62291;47.554;8.504;2023-05-21T10:13:24;26.90;91.80
73939;DHT22;62291;47.554;8.504;2023-05-21T10:15:52;27.00;91.10
73939;DHT22;62291;47.554;8.504;2023-05-21T10:18:19;27.30;90.80
73939;DHT22;62291;47.554;8.504;2023-05-21T10:20:46;27.50;90.40
73939;DHT22;62291;47.554;8.504;2023-05-21T10:23:12;28.30;91.20
73939;DHT22;62291;47.554;8.504;2023-05-21T10:25:38;29.10;86.40
73939;DHT22;62291;47.554;8.504;2023-05-21T10:28:04;29.40;85.90
73939;DHT22;62291;47.554;8.504;2023-05-21T10:30:31;29.10;89.30
73939;DHT22;62291;47.554;8.504;2023-05-21T10:32:57;28.80;86.60
73939;DHT22;62291;47.554;8.504;2023-05-21T10:35:23;28.40;88.60
73939;DHT22;62291;47.554;8.504;2023-05-21T10:37:50;28.30;91.30
73939;DHT22;62291;47.554;8.504;2023-05-21T10:40:15;27.90;88.30
73939;DHT22;62291;47.554;8.504;2023-05-21T10:45:22;27.40;90.00
73939;DHT22;62291;47.554;8.504;2023-05-21T10:50:33;27.30;91.70
73939;DHT22;62291;47.554;8.504;2023-05-21T10:58:27;27.70;87.90
73939;DHT22;62291;47.554;8.504;2023-05-21T11:00:54;27.40;89.30
73939;DHT22;62291;47.554;8.504;2023-05-21T11:03:20;27.20;88.60
73939;DHT22;62291;47.554;8.504;2023-05-21T11:05:56;27.70;89.70
73939;DHT22;62291;47.554;8.504;2023-05-21T11:08:28;28.10;90.80
73939;DHT22;62291;47.554;8.504;2023-05-21T11:11:01;28.10;85.40
73939;DHT22;62291;47.554;8.504;2023-05-21T11:13:28;27.70;88.60
73939;DHT22;62291;47.554;8.504;2023-05-21T11:16:13;27.30;88.00
73939;DHT22;62291;47.554;8.504;2023-05-21T11:21:04;27.10;87.50
73939;DHT22;62291;47.554;8.504;2023-05-21T11:26:14;26.70;89.70
73939;DHT22;62291;47.554;8.504;2023-05-21T11:28:40;26.90;89.60
73939;DHT22;62291;47.554;8.504;2023-05-21T11:31:24;27.10;87.30
73939;DHT22;62291;47.554;8.504;2023-05-21T11:36:43;26.90;86.60
73939;DHT22;62291;47.554;8.504;2023-05-21T11:39:09;26.60;90.40
73939;DHT22;62291;47.554;8.504;2023-05-21T11:44:20;27.30;86.60
73939;DHT22;62291;47.554;8.504;2023-05-21T11:47:01;27.40;89.60
73939;DHT22;62291;47.554;8.504;2023-05-21T11:49:27;27.40;87.40
73939;DHT22;62291;47.554;8.504;2023-05-21T11:51:52;27.30;84.00
73939;DHT22;62291;47.554;8.504;2023-05-21T11:54:18;27.20;89.50
73939;DHT22;62291;47.554;8.504;2023-05-21T11:56:44;27.40;87.20
73939;DHT22;62291;47.554;8.504;2023-05-21T11:59:13;27.30;90.00
73939;DHT22;62291;47.554;8.504;2023-05-21T12:01:40;27.40;90.30
73939;DHT22;62291;47.554;8.504;2023-05-21T12:04:06;27.40;87.30
73939;DHT22;62291;47.554;8.504;2023-05-21T12:06:31;27.50;86.60
73939;DHT22;62291;47.554;8.504;2023-05-21T12:08:58;27.40;86.80
73939;DHT22;62291;47.554;8.504;2023-05-21T12:11:24;27.50;85.80
73939;DHT22;62291;47.554;8.504;2023-05-21T12:13:51;27.50;81.10
73939;DHT22;62291;47.554;8.504;2023-05-21T12:16:16;27.20;83.90
73939;DHT22;62291;47.554;8.504;2023-05-21T12:18:42;27.60;86.20
73939;DHT22;62291;47.554;8.504;2023-05-21T12:21:07;27.70;89.10
73939;DHT22;62291;47.554;8.504;2023-05-21T12:23:33;27.80;80.10
73939;DHT22;62291;47.554;8.504;2023-05-21T12:25:59;27.90;79.20
73939;DHT22;62291;47.554;8.504;2023-05-21T12:28:24;27.70;81.10
73939;DHT22;62291;47.554;8.504;2023-05-21T12:30:50;28.00;81.60
73939;DHT22;62291;47.554;8.504;2023-05-21T12:33:15;28.20;82.70
73939;DHT22;62291;47.554;8.504;2023-05-21T12:35:47;28.30;83.00
73939;DHT22;62291;47.554;8.504;2023-05-21T12:38:14;28.10;82.50
73939;DHT22;62291;47.554;8.504;2023-05-21T12:40:39;28.10;80.00
73939;DHT22;62291;47.554;8.504;2023-05-21T12:43:07;27.70;78.00
73939;DHT22;62291;47.554;8.504;2023-05-21T12:45:32;27.40;80.30
73939;DHT22;62291;47.554;8.504;2023-05-21T12:48:01;27.10;78.70
73939;DHT22;62291;47.554;8.504;2023-05-21T12:50:27;26.80;80.00
73939;DHT22;62291;47.554;8.504;2023-05-21T12:52:56;26.90;75.70
73939;DHT22;62291;47.554;8.504;2023-05-21T12:55:25;26.80;78.80
73939;DHT22;62291;47.554;8.504;2023-05-21T12:57:59;26.80;80.60
73939;DHT22;62291;47.554;8.504;2023-05-21T13:00:25;26.60;78.60
73939;DHT22;62291;47.554;8.504;2023-05-21T13:02:51;26.40;80.30
73939;DHT22;62291;47.554;8.504;2023-05-21T13:05:17;26.20;81.40
73939;DHT22;62291;47.554;8.504;2023-05-21T13:07:43;26.10;82.00
73939;DHT22;62291;47.554;8.504;2023-05-21T13:10:11;26.20;84.10
73939;DHT22;62291;47.554;8.504;2023-05-21T13:12:37;26.00;82.80
73939;DHT22;62291;47.554;8.504;2023-05-21T13:15:03;25.90;83.60
73939;DHT22;62291;47.554;8.504;2023-05-21T13:17:29;25.90;86.30
73939;DHT22;62291;47.554;8.504;2023-05-21T13:20:07;25.90;84.80
73939;DHT22;62291;47.554;8.504;2023-05-21T13:22:34;25.90;82.50
73939;DHT22;62291;47.554;8.504;2023-05-21T13:25:02;26.00;81.10
73939;DHT22;62291;47.554;8.504;2023-05-21T13:27:28;25.80;82.30
73939;DHT22;62291;47.554;8.504;2023-05-21T13:29:53;25.70;82.60
73939;DHT22;62291;47.554;8.504;2023-05-21T13:32:19;25.90;82.80
73939;DHT22;62291;47.554;8.504;2023-05-21T13:34:44;26.00;82.80
73939;DHT22;62291;47.554;8.504;2023-05-21T13:37:10;26.00;82.30
73939;DHT22;62291;47.554;8.504;2023-05-21T13:39:36;26.10;82.10
73939;DHT22;62291;47.554;8.504;2023-05-21T13:42:01;26.10;82.60
73939;DHT22;62291;47.554;8.504;2023-05-21T13:44:27;26.10;80.40
73939;DHT22;62291;47.554;8.504;2023-05-21T13:46:52;25.90;80.60
73939;DHT22;62291;47.554;8.504;2023-05-21T13:49:18;25.80;78.80
73939;DHT22;62291;47.554;8.504;2023-05-21T13:51:43;25.80;79.80
73939;DHT22;62291;47.554;8.504;2023-05-21T13:54:09;25.70;81.20
73939;DHT22;62291;47.554;8.504;2023-05-21T13:56:38;25.80;82.20
73939;DHT22;62291;47.554;8.504;2023-05-21T13:59:03;26.00;81.00
73939;DHT22;62291;47.554;8.504;2023-05-21T14:01:29;26.20;79.20
73939;DHT22;62291;47.554;8.504;2023-05-21T14:03:55;26.30;78.70
73939;DHT22;62291;47.554;8.504;2023-05-21T14:06:21;26.10;81.30
73939;DHT22;62291;47.554;8.504;2023-05-21T14:08:46;26.30;82.70
73939;DHT22;62291;47.554;8.504;2023-05-21T14:11:12;26.60;84.10
73939;DHT22;62291;47.554;8.504;2023-05-21T14:13:37;26.40;80.30
73939;DHT22;62291;47.554;8.504;2023-05-21T14:16:03;26.30;82.60
73939;DHT22;62291;47.554;8.504;2023-05-21T14:18:29;26.20;84.70
73939;DHT22;62291;47.554;8.504;2023-05-21T14:20:54;26.30;87.50
73939;DHT22;62291;47.554;8.504;2023-05-21T14:23:20;26.40;83.30
73939;DHT22;62291;47.554;8.504;2023-05-21T14:25:45;26.40;84.60
73939;DHT22;62291;47.554;8.504;2023-05-21T14:28:11;26.30;81.90
73939;DHT22;62291;47.554;8.504;2023-05-21T14:30:36;26.20;81.80
73939;DHT22;62291;47.554;8.504;2023-05-21T14:33:02;26.10;81.30
73939;DHT22;62291;47.554;8.504;2023-05-21T14:35:27;26.00;84.30
73939;DHT22;62291;47.554;8.504;2023-05-21T14:37:53;25.90;80.60
73939;DHT22;62291;47.554;8.504;2023-05-21T14:40:18;25.90;82.70
73939;DHT22;62291;47.554;8.504;2023-05-21T14:42:44;25.80;83.50
73939;DHT22;62291;47.554;8.504;2023-05-21T14:45:10;25.70;80.30
73939;DHT22;62291;47.554;8.504;2023-05-21T14:47:36;25.70;80.10
73939;DHT22;62291;47.554;8.504;2023-05-21T14:50:01;25.60;82.00
73939;DHT22;62291;47.554;8.504;2023-05-21T14:52:27;25.50;79.60
73939;DHT22;62291;47.554;8.504;2023-05-21T14:54:52;25.50;79.80
73939;DHT22;62291;47.554;8.504;2023-05-21T14:57:18;25.40;79.80
73939;DHT22;62291;47.554;8.504;2023-05-21T14:59:43;25.30;79.10
73939;DHT22;62291;47.554;8.504;2023-05-21T15:02:09;25.30;82.50
73939;DHT22;62291;47.554;8.504;2023-05-21T15:04:34;25.30;79.60
73939;DHT22;62291;47.554;8.504;2023-05-21T15:07:00;25.40;83.10
73939;DHT22;62291;47.554;8.504;2023-05-21T15:09:25;25.40;85.80
73939;DHT22;62291;47.554;8.504;2023-05-21T15:11:51;25.40;82.60
73939;DHT22;62291;47.554;8.504;2023-05-21T15:14:18;25.30;82.10
73939;DHT22;62291;47.554;8.504;2023-05-21T15:16:43;25.30;83.40
73939;DHT22;62291;47.554;8.504;2023-05-21T15:19:09;25.30;82.10
73939;DHT22;62291;47.554;8.504;2023-05-21T15:21:36;25.20;84.20
73939;DHT22;62291;47.554;8.504;2023-05-21T15:24:02;25.20;82.80
73939;DHT22;62291;47.554;8.504;2023-05-21T15:26:27;25.10;82.50
73939;DHT22;62291;47.554;8.504;2023-05-21T15:28:53;25.00;84.40
73939;DHT22;62291;47.554;8.504;2023-05-21T15:31:18;25.00;85.80
73939;DHT22;62291;47.554;8.504;2023-05-21T15:33:44;25.00;81.30
73939;DHT22;62291;47.554;8.504;2023-05-21T15:36:09;25.00;79.30
73939;DHT22;62291;47.554;8.504;2023-05-21T15:38:35;25.10;78.50
73939;DHT22;62291;47.554;8.504;2023-05-21T15:41:00;25.10;82.90
73939;DHT22;62291;47.554;8.504;2023-05-21T15:43:26;25.20;81.10
73939;DHT22;62291;47.554;8.504;2023-05-21T15:45:52;25.20;82.80
73939;DHT22;62291;47.554;8.504;2023-05-21T15:48:17;25.30;87.10